sensor_id;sensor_type;location;lat;lon;timestamp;pressure;altitude;pressure_sealevel;temperature;humidity
76478;BME280;65309;49.790;18.972;2023-03-30T00:00:00;96856.16;;;4.90;62.43
76478;BME280;65309;49.790;18.972;2023-03-30T00:05:03;96844.22;;;4.84;61.90
76478;BME280;65309;49.790;18.972;2023-03-30T00:10:08;96842.81;;;4.80;62.10
76478;BME280;65309;49.790;18.972;2023-03-30T00:15:11;96836.09;;;4.81;61.34
76478;BME280;65309;49.790;18.972;2023-03-30T00:20:14;96841.16;;;4.82;63.44
76478;BME280;65309;49.790;18.972;2023-03-30T00:25:19;96826.03;;;4.90;62.47
76478;BME280;65309;49.790;18.972;2023-03-30T00:30:21;96829.66;;;4.87;63.50
76478;BME280;65309;49.790;18.972;2023-03-30T00:35:24;96827.97;;;4.90;63.80
76478;BME280;65309;49.790;18.972;2023-03-30T00:40:30;96819.22;;;4.82;63.79
76478;BME280;65309;49.790;18.972;2023-03-30T00:45:34;96837.66;;;4.69;64.35
76478;BME280;65309;49.790;18.972;2023-03-30T00:50:39;96827.88;;;4.55;63.48
76478;BME280;65309;49.790;18.972;2023-03-30T00:55:46;96817.94;;;4.49;64.64
76478;BME280;65309;49.790;18.972;2023-03-30T01:00:50;96823.94;;;4.44;65.83
76478;BME280;65309;49.790;18.972;2023-03-30T01:05:53;70918.97;;;-145.47;100.00
76478;BME280;65309;49.790;18.972;2023-03-30T01:10:57;96822.75;;;4.45;67.02
76478;BME280;65309;49.790;18.972;2023-03-30T01:16:09;96830.53;;;4.59;65.58
76478;BME280;65309;49.790;18.972;2023-03-30T01:21:34;96811.03;;;4.70;66.22
76478;BME280;65309;49.790;18.972;2023-03-30T01:26:48;96798.31;;;4.88;66.56
76478;BME280;65309;49.790;18.972;2023-03-30T01:32:19;96792.88;;;4.97;65.64
76478;BME280;65309;49.790;18.972;2023-03-30T01:37:48;96783.91;;;4.97;65.93
76478;BME280;65309;49.790;18.972;2023-03-30T01:43:02;96785.00;;;4.99;66.14
76478;BME280;65309;49.790;18.972;2023-03-30T01:48:12;96782.56;;;5.01;66.00
76478;BME280;65309;49.790;18.972;2023-03-30T01:53:22;96778.38;;;5.09;66.56
76478;BME280;65309;49.790;18.972;2023-03-30T01:58:31;96770.13;;;5.22;65.98
76478;BME280;65309;49.790;18.972;2023-03-30T02:03:36;96779.84;;;5.36;66.18
76478;BME280;65309;49.790;18.972;2023-03-30T02:08:40;96771.38;;;5.43;66.62
76478;BME280;65309;49.790;18.972;2023-03-30T02:13:45;96776.94;;;5.52;65.92
76478;BME280;65309;49.790;18.972;2023-03-30T02:18:48;96760.03;;;5.53;65.62
76478;BME280;65309;49.790;18.972;2023-03-30T02:23:57;96760.03;;;5.53;65.62
76478;BME280;65309;49.790;18.972;2023-03-30T02:29:01;96763.06;;;5.55;65.81
76478;BME280;65309;49.790;18.972;2023-03-30T02:34:08;96759.47;;;5.59;66.88
76478;BME280;65309;49.790;18.972;2023-03-30T02:39:23;96760.28;;;5.68;65.00
76478;BME280;65309;49.790;18.972;2023-03-30T02:44:40;96755.41;;;5.72;65.02
76478;BME280;65309;49.790;18.972;2023-03-30T02:49:53;96757.28;;;5.75;64.24
76478;BME280;65309;49.790;18.972;2023-03-30T02:54:57;96747.59;;;5.83;64.12
76478;BME280;65309;49.790;18.972;2023-03-30T03:00:05;96752.81;;;5.90;64.48
76478;BME280;65309;49.790;18.972;2023-03-30T03:06:10;70918.97;;;-145.47;100.00
76478;BME280;65309;49.790;18.972;2023-03-30T03:11:15;96732.53;;;5.88;64.21
76478;BME280;65309;49.790;18.972;2023-03-30T03:16:19;96722.00;;;5.86;65.23
76478;BME280;65309;49.790;18.972;2023-03-30T03:21:21;96729.56;;;5.82;64.44
76478;BME280;65309;49.790;18.972;2023-03-30T03:26:23;96728.03;;;5.81;65.34
76478;BME280;65309;49.790;18.972;2023-03-30T03:31:26;96719.19;;;5.77;65.18
76478;BME280;65309;49.790;18.972;2023-03-30T03:36:28;96710.69;;;5.84;65.18
76478;BME280;65309;49.790;18.972;2023-03-30T03:41:31;96693.72;;;5.77;65.34
76478;BME280;65309;49.790;18.972;2023-03-30T03:46:34;96696.66;;;5.82;64.42
76478;BME280;65309;49.790;18.972;2023-03-30T03:51:36;96687.88;;;5.87;63.37
76478;BME280;65309;49.790;18.972;2023-03-30T03:56:38;96681.09;;;5.79;62.63
76478;BME280;65309;49.790;18.972;2023-03-30T04:01:42;96685.13;;;5.87;62.54
76478;BME280;65309;49.790;18.972;2023-03-30T04:06:44;96669.44;;;5.97;62.18
76478;BME280;65309;49.790;18.972;2023-03-30T04:11:47;96690.13;;;5.89;60.89
76478;BME280;65309;49.790;18.972;2023-03-30T04:16:52;96696.78;;;6.00;62.28
76478;BME280;65309;49.790;18.972;2023-03-30T04:21:53;96684.53;;;5.92;61.51
76478;BME280;65309;49.790;18.972;2023-03-30T04:26:56;96661.66;;;5.95;61.31
76478;BME280;65309;49.790;18.972;2023-03-30T04:31:59;96662.91;;;6.04;62.93
76478;BME280;65309;49.790;18.972;2023-03-30T04:37:04;96649.50;;;6.06;63.21
76478;BME280;65309;49.790;18.972;2023-03-30T04:42:08;96659.25;;;6.07;61.98
76478;BME280;65309;49.790;18.972;2023-03-30T04:47:16;96646.94;;;6.11;62.77
76478;BME280;65309;49.790;18.972;2023-03-30T04:52:18;96627.13;;;6.16;61.75
76478;BME280;65309;49.790;18.972;2023-03-30T04:57:20;96635.53;;;6.22;60.50
76478;BME280;65309;49.790;18.972;2023-03-30T05:02:23;96623.16;;;6.26;59.60
76478;BME280;65309;49.790;18.972;2023-03-30T05:07:26;96615.72;;;6.36;60.57
76478;BME280;65309;49.790;18.972;2023-03-30T05:12:28;96616.06;;;6.47;61.14
76478;BME280;65309;49.790;18.972;2023-03-30T05:17:33;96609.66;;;6.59;60.35
76478;BME280;65309;49.790;18.972;2023-03-30T05:22:35;96615.75;;;6.63;58.72
76478;BME280;65309;49.790;18.972;2023-03-30T05:27:37;96625.53;;;6.82;59.37
76478;BME280;65309;49.790;18.972;2023-03-30T05:32:41;96630.09;;;6.85;57.28
76478;BME280;65309;49.790;18.972;2023-03-30T05:37:43;96614.97;;;6.81;57.78
76478;BME280;65309;49.790;18.972;2023-03-30T05:42:45;96608.72;;;6.99;57.95
76478;BME280;65309;49.790;18.972;2023-03-30T05:47:51;96603.53;;;6.91;55.48
76478;BME280;65309;49.790;18.972;2023-03-30T05:52:53;96607.50;;;6.90;57.02
76478;BME280;65309;49.790;18.972;2023-03-30T05:57:55;96614.53;;;6.82;55.75
76478;BME280;65309;49.790;18.972;2023-03-30T06:02:59;96603.09;;;6.84;55.81
76478;BME280;65309;49.790;18.972;2023-03-30T06:08:01;96578.97;;;6.97;55.28
76478;BME280;65309;49.790;18.972;2023-03-30T06:13:05;96580.91;;;7.06;56.45
76478;BME280;65309;49.790;18.972;2023-03-30T06:19:07;70918.97;;;-145.47;100.00
76478;BME280;65309;49.790;18.972;2023-03-30T06:24:09;96557.19;;;7.26;55.89
76478;BME280;65309;49.790;18.972;2023-03-30T06:29:11;96558.25;;;7.38;55.51
76478;BME280;65309;49.790;18.972;2023-03-30T06:34:15;96566.34;;;7.32;55.66
76478;BME280;65309;49.790;18.972;2023-03-30T06:39:17;96559.13;;;7.44;54.35
76478;BME280;65309;49.790;18.972;2023-03-30T06:44:19;96543.78;;;7.61;56.86
76478;BME280;65309;49.790;18.972;2023-03-30T06:49:24;95745.19;;;7.61;56.86
76478;BME280;65309;49.790;18.972;2023-03-30T06:55:24;70918.97;;;-145.47;100.00
76478;BME280;65309;49.790;18.972;2023-03-30T07:01:25;70918.97;;;-145.47;100.00
76478;BME280;65309;49.790;18.972;2023-03-30T07:06:55;96543.78;;;7.61;56.86
76478;BME280;65309;49.790;18.972;2023-03-30T07:11:58;96512.13;;;8.75;53.33
76478;BME280;65309;49.790;18.972;2023-03-30T07:17:00;96510.63;;;9.04;53.53
76478;BME280;65309;49.790;18.972;2023-03-30T07:22:03;96501.59;;;9.03;53.17
76478;BME280;65309;49.790;18.972;2023-03-30T07:27:05;96503.69;;;9.08;52.67
76478;BME280;65309;49.790;18.972;2023-03-30T07:32:08;96511.94;;;9.38;53.60
76478;BME280;65309;49.790;18.972;2023-03-30T07:37:11;96502.97;;;9.57;52.26
76478;BME280;65309;49.790;18.972;2023-03-30T07:42:13;96511.19;;;9.37;52.78
76478;BME280;65309;49.790;18.972;2023-03-30T07:47:15;96502.84;;;9.17;52.05
76478;BME280;65309;49.790;18.972;2023-03-30T07:52:19;96507.66;;;9.51;54.59
76478;BME280;65309;49.790;18.972;2023-03-30T07:57:21;96508.56;;;9.98;53.80
76478;BME280;65309;49.790;18.972;2023-03-30T08:02:23;96502.06;;;10.56;53.31
76478;BME280;65309;49.790;18.972;2023-03-30T08:07:27;96491.91;;;10.99;51.65
76478;BME280;65309;49.790;18.972;2023-03-30T08:12:30;96506.69;;;11.47;50.29
76478;BME280;65309;49.790;18.972;2023-03-30T08:17:32;96502.94;;;11.50;50.49
76478;BME280;65309;49.790;18.972;2023-03-30T08:22:36;96515.34;;;11.61;50.03
76478;BME280;65309;49.790;18.972;2023-03-30T08:27:38;96517.84;;;11.59;49.18
76478;BME280;65309;49.790;18.972;2023-03-30T08:32:40;96525.56;;;11.75;47.90
76478;BME280;65309;49.790;18.972;2023-03-30T08:37:43;96533.06;;;11.69;49.61
76478;BME280;65309;49.790;18.972;2023-03-30T08:43:03;96534.78;;;11.97;50.20
76478;BME280;65309;49.790;18.972;2023-03-30T08:48:14;96512.03;;;11.88;48.05
76478;BME280;65309;49.790;18.972;2023-03-30T08:53:19;96509.22;;;11.77;48.89
76478;BME280;65309;49.790;18.972;2023-03-30T08:58:28;96485.78;;;11.78;48.77
76478;BME280;65309;49.790;18.972;2023-03-30T09:03:37;96484.00;;;11.43;49.91
76478;BME280;65309;49.790;18.972;2023-03-30T09:08:41;96478.63;;;11.03;49.96
76478;BME280;65309;49.790;18.972;2023-03-30T09:13:45;96441.50;;;11.15;51.55
76478;BME280;65309;49.790;18.972;2023-03-30T09:19:49;70918.97;;;-145.47;100.00
76478;BME280;65309;49.790;18.972;2023-03-30T09:28:11;70918.97;;;-145.47;100.00
76478;BME280;65309;49.790;18.972;2023-03-30T09:34:24;70918.97;;;-145.47;100.00
76478;BME280;65309;49.790;18.972;2023-03-30T09:40:53;96409.66;;;10.68;51.18
76478;BME280;65309;49.790;18.972;2023-03-30T09:46:04;96403.19;;;11.08;51.33
76478;BME280;65309;49.790;18.972;2023-03-30T09:51:18;96429.59;;;11.40;51.25
76478;BME280;65309;49.790;18.972;2023-03-30T09:56:27;96424.47;;;11.65;49.84
76478;BME280;65309;49.790;18.972;2023-03-30T10:01:34;96432.16;;;11.81;50.92
76478;BME280;65309;49.790;18.972;2023-03-30T10:06:44;96430.47;;;11.58;52.30
76478;BME280;65309;49.790;18.972;2023-03-30T10:11:50;96413.66;;;11.67;51.01
76478;BME280;65309;49.790;18.972;2023-03-30T10:16:52;96383.38;;;11.58;51.92
76478;BME280;65309;49.790;18.972;2023-03-30T10:21:56;96353.97;;;12.30;52.32
76478;BME280;65309;49.790;18.972;2023-03-30T10:27:11;96375.13;;;12.22;51.06
76478;BME280;65309;49.790;18.972;2023-03-30T10:32:17;96358.28;;;12.54;51.26
76478;BME280;65309;49.790;18.972;2023-03-30T10:37:24;96370.19;;;13.15;49.80
76478;BME280;65309;49.790;18.972;2023-03-30T10:42:31;96372.91;;;12.43;50.70
76478;BME280;65309;49.790;18.972;2023-03-30T10:47:44;96355.78;;;12.95;50.07
76478;BME280;65309;49.790;18.972;2023-03-30T10:52:57;96356.78;;;13.19;51.41
76478;BME280;65309;49.790;18.972;2023-03-30T10:58:11;96365.38;;;12.77;49.81
76478;BME280;65309;49.790;18.972;2023-03-30T11:03:20;96356.03;;;12.97;51.32
76478;BME280;65309;49.790;18.972;2023-03-30T11:08:25;96351.50;;;12.66;50.97
76478;BME280;65309;49.790;18.972;2023-03-30T11:13:34;96356.03;;;12.80;50.06
76478;BME280;65309;49.790;18.972;2023-03-30T11:18:40;96354.78;;;12.70;49.08
76478;BME280;65309;49.790;18.972;2023-03-30T11:23:50;96359.06;;;12.76;49.69
76478;BME280;65309;49.790;18.972;2023-03-30T11:29:08;96356.31;;;13.21;49.52
76478;BME280;65309;49.790;18.972;2023-03-30T11:34:20;96329.56;;;12.84;50.37
76478;BME280;65309;49.790;18.972;2023-03-30T11:39:29;96327.03;;;12.75;50.16
76478;BME280;65309;49.790;18.972;2023-03-30T11:44:35;96301.28;;;12.97;49.79
76478;BME280;65309;49.790;18.972;2023-03-30T11:49:46;96300.78;;;12.71;50.26
76478;BME280;65309;49.790;18.972;2023-03-30T11:55:05;96290.38;;;13.38;49.45
76478;BME280;65309;49.790;18.972;2023-03-30T12:00:24;96279.31;;;12.99;51.01
76478;BME280;65309;49.790;18.972;2023-03-30T12:05:30;96274.28;;;13.14;50.55
76478;BME280;65309;49.790;18.972;2023-03-30T12:10:38;96269.38;;;13.48;50.45
76478;BME280;65309;49.790;18.972;2023-03-30T12:15:45;96273.63;;;13.60;51.23
76478;BME280;65309;49.790;18.972;2023-03-30T12:21:09;96270.78;;;13.71;50.13
76478;BME280;65309;49.790;18.972;2023-03-30T12:26:18;96279.06;;;13.88;50.18
76478;BME280;65309;49.790;18.972;2023-03-30T12:31:51;96281.22;;;13.60;50.40
76478;BME280;65309;49.790;18.972;2023-03-30T12:37:05;96290.31;;;13.55;50.31
76478;BME280;65309;49.790;18.972;2023-03-30T12:42:15;96289.88;;;13.40;51.09
76478;BME280;65309;49.790;18.972;2023-03-30T12:47:42;96296.44;;;13.36;51.56
76478;BME280;65309;49.790;18.972;2023-03-30T12:52:58;96293.41;;;13.34;50.80
76478;BME280;65309;49.790;18.972;2023-03-30T13:03:42;96292.72;;;12.67;52.54
76478;BME280;65309;49.790;18.972;2023-03-30T13:08:54;96282.63;;;12.81;53.91
76478;BME280;65309;49.790;18.972;2023-03-30T13:13:57;96288.94;;;12.54;53.85
76478;BME280;65309;49.790;18.972;2023-03-30T13:19:09;96297.00;;;12.63;54.28
76478;BME280;65309;49.790;18.972;2023-03-30T13:24:24;96298.53;;;12.64;53.54
76478;BME280;65309;49.790;18.972;2023-03-30T13:29:27;96303.34;;;12.69;53.78
76478;BME280;65309;49.790;18.972;2023-03-30T13:34:48;96309.13;;;12.60;54.36
76478;BME280;65309;49.790;18.972;2023-03-30T13:40:10;96315.44;;;12.71;53.85
76478;BME280;65309;49.790;18.972;2023-03-30T13:45:34;96318.94;;;12.77;54.06
76478;BME280;65309;49.790;18.972;2023-03-30T13:50:45;96322.00;;;12.79;54.41
76478;BME280;65309;49.790;18.972;2023-03-30T13:55:48;96339.63;;;12.43;55.93
76478;BME280;65309;49.790;18.972;2023-03-30T14:00:53;96352.38;;;12.02;57.46
76478;BME280;65309;49.790;18.972;2023-03-30T14:06:03;96360.97;;;12.09;59.11
76478;BME280;65309;49.790;18.972;2023-03-30T14:11:13;96356.88;;;11.88;60.03
76478;BME280;65309;49.790;18.972;2023-03-30T14:16:19;96370.00;;;11.93;60.52
76478;BME280;65309;49.790;18.972;2023-03-30T14:21:23;96391.47;;;11.24;66.47
76478;BME280;65309;49.790;18.972;2023-03-30T14:26:27;96394.00;;;11.22;68.54
76478;BME280;65309;49.790;18.972;2023-03-30T14:31:37;96388.75;;;10.93;70.40
76478;BME280;65309;49.790;18.972;2023-03-30T14:36:42;96387.56;;;10.74;71.72
76478;BME280;65309;49.790;18.972;2023-03-30T14:42:44;70918.97;;;-145.47;100.00
76478;BME280;65309;49.790;18.972;2023-03-30T14:48:45;70918.97;;;-145.47;100.00
76478;BME280;65309;49.790;18.972;2023-03-30T14:54:52;70918.97;;;-145.47;100.00
76478;BME280;65309;49.790;18.972;2023-03-30T15:01:11;70918.97;;;-145.47;100.00
76478;BME280;65309;49.790;18.972;2023-03-30T15:07:17;70918.97;;;-145.47;100.00
76478;BME280;65309;49.790;18.972;2023-03-30T15:13:23;70918.97;;;-145.47;100.00
76478;BME280;65309;49.790;18.972;2023-03-30T15:19:27;70918.97;;;-145.47;100.00
76478;BME280;65309;49.790;18.972;2023-03-30T15:25:30;70918.97;;;-145.47;100.00
76478;BME280;65309;49.790;18.972;2023-03-30T15:31:35;70918.97;;;-145.47;100.00
76478;BME280;65309;49.790;18.972;2023-03-30T15:37:36;70918.97;;;-145.47;100.00
76478;BME280;65309;49.790;18.972;2023-03-30T15:43:50;70918.97;;;-145.47;100.00
76478;BME280;65309;49.790;18.972;2023-03-30T15:49:52;70918.97;;;-145.47;100.00
76478;BME280;65309;49.790;18.972;2023-03-30T15:55:53;70918.97;;;-145.47;100.00
76478;BME280;65309;49.790;18.972;2023-03-30T16:01:55;70918.97;;;-145.47;100.00
76478;BME280;65309;49.790;18.972;2023-03-30T16:07:57;70918.97;;;-145.47;100.00
76478;BME280;65309;49.790;18.972;2023-03-30T16:13:58;70918.97;;;-145.47;100.00
76478;BME280;65309;49.790;18.972;2023-03-30T16:19:59;70918.97;;;-145.47;100.00
76478;BME280;65309;49.790;18.972;2023-03-30T16:26:01;70918.97;;;-145.47;100.00
76478;BME280;65309;49.790;18.972;2023-03-30T16:32:04;70918.97;;;-145.47;100.00
76478;BME280;65309;49.790;18.972;2023-03-30T16:38:06;70918.97;;;-145.47;100.00
76478;BME280;65309;49.790;18.972;2023-03-30T16:44:08;70918.97;;;-145.47;100.00
76478;BME280;65309;49.790;18.972;2023-03-30T16:50:13;70918.97;;;-145.47;100.00
76478;BME280;65309;49.790;18.972;2023-03-30T16:56:17;70918.97;;;-145.47;100.00
76478;BME280;65309;49.790;18.972;2023-03-30T17:02:20;70918.97;;;-145.47;100.00
76478;BME280;65309;49.790;18.972;2023-03-30T17:08:22;70918.97;;;-145.47;100.00
76478;BME280;65309;49.790;18.972;2023-03-30T17:14:25;70918.97;;;-145.47;100.00
76478;BME280;65309;49.790;18.972;2023-03-30T17:20:29;70918.97;;;-145.47;100.00
76478;BME280;65309;49.790;18.972;2023-03-30T17:26:32;70918.97;;;-145.47;100.00
76478;BME280;65309;49.790;18.972;2023-03-30T17:32:32;70918.97;;;-145.47;100.00
76478;BME280;65309;49.790;18.972;2023-03-30T17:38:34;70918.97;;;-145.47;100.00
76478;BME280;65309;49.790;18.972;2023-03-30T17:44:36;70918.97;;;-145.47;100.00
76478;BME280;65309;49.790;18.972;2023-03-30T17:50:38;70918.97;;;-145.47;100.00
76478;BME280;65309;49.790;18.972;2023-03-30T17:56:44;70918.97;;;-145.47;100.00
76478;BME280;65309;49.790;18.972;2023-03-30T18:02:45;70918.97;;;-145.47;100.00
76478;BME280;65309;49.790;18.972;2023-03-30T18:07:47;96169.06;;;8.82;79.20
76478;BME280;65309;49.790;18.972;2023-03-30T18:13:50;70918.97;;;-145.47;100.00
76478;BME280;65309;49.790;18.972;2023-03-30T18:18:54;96156.91;;;8.89;78.45
76478;BME280;65309;49.790;18.972;2023-03-30T18:24:00;96166.94;;;8.92;79.18
76478;BME280;65309;49.790;18.972;2023-03-30T18:30:13;70918.97;;;-145.47;100.00
76478;BME280;65309;49.790;18.972;2023-03-30T18:35:18;96159.47;;;8.98;78.64
76478;BME280;65309;49.790;18.972;2023-03-30T18:40:21;96165.97;;;8.95;78.11
76478;BME280;65309;49.790;18.972;2023-03-30T18:45:27;96160.78;;;9.02;78.77
76478;BME280;65309;49.790;18.972;2023-03-30T18:50:32;96165.84;;;9.04;78.85
76478;BME280;65309;49.790;18.972;2023-03-30T18:55:38;96177.72;;;9.10;79.13
76478;BME280;65309;49.790;18.972;2023-03-30T19:00:41;96184.09;;;9.21;78.37
76478;BME280;65309;49.790;18.972;2023-03-30T19:05:44;96188.44;;;9.28;78.09
76478;BME280;65309;49.790;18.972;2023-03-30T19:10:49;96182.69;;;9.32;78.05
76478;BME280;65309;49.790;18.972;2023-03-30T19:15:52;96176.84;;;9.24;78.34
76478;BME280;65309;49.790;18.972;2023-03-30T19:20:54;96187.41;;;9.26;78.25
76478;BME280;65309;49.790;18.972;2023-03-30T19:25:58;96185.00;;;9.13;78.88
76478;BME280;65309;49.790;18.972;2023-03-30T19:31:03;96176.50;;;9.16;78.14
76478;BME280;65309;49.790;18.972;2023-03-30T19:36:06;96181.97;;;9.11;77.72
76478;BME280;65309;49.790;18.972;2023-03-30T19:41:09;96150.25;;;9.01;78.29
76478;BME280;65309;49.790;18.972;2023-03-30T19:46:12;96152.06;;;8.84;80.03
76478;BME280;65309;49.790;18.972;2023-03-30T19:51:14;96168.09;;;8.85;78.71
76478;BME280;65309;49.790;18.972;2023-03-30T19:56:17;96154.94;;;8.95;78.55
76478;BME280;65309;49.790;18.972;2023-03-30T20:01:20;96147.50;;;9.01;78.55
76478;BME280;65309;49.790;18.972;2023-03-30T20:06:22;96141.69;;;8.99;78.23
76478;BME280;65309;49.790;18.972;2023-03-30T20:11:24;96137.41;;;8.98;78.13
76478;BME280;65309;49.790;18.972;2023-03-30T20:16:28;96144.34;;;8.88;78.63
76478;BME280;65309;49.790;18.972;2023-03-30T20:21:31;96132.47;;;8.82;78.87
76478;BME280;65309;49.790;18.972;2023-03-30T20:26:33;96120.53;;;8.90;78.87
76478;BME280;65309;49.790;18.972;2023-03-30T20:31:37;96121.59;;;8.93;77.98
76478;BME280;65309;49.790;18.972;2023-03-30T20:36:39;96116.88;;;8.99;78.73
76478;BME280;65309;49.790;18.972;2023-03-30T20:41:41;96110.91;;;9.26;78.12
76478;BME280;65309;49.790;18.972;2023-03-30T20:46:45;96101.44;;;9.33;77.38
76478;BME280;65309;49.790;18.972;2023-03-30T20:51:48;96115.84;;;9.42;78.50
76478;BME280;65309;49.790;18.972;2023-03-30T20:56:51;96110.44;;;9.85;76.32
76478;BME280;65309;49.790;18.972;2023-03-30T21:01:55;96107.75;;;9.96;75.48
76478;BME280;65309;49.790;18.972;2023-03-30T21:06:59;96113.84;;;10.05;75.47
76478;BME280;65309;49.790;18.972;2023-03-30T21:12:02;96121.06;;;9.97;75.58
76478;BME280;65309;49.790;18.972;2023-03-30T21:17:06;96106.22;;;10.26;74.42
76478;BME280;65309;49.790;18.972;2023-03-30T21:22:08;96106.22;;;10.26;74.42
76478;BME280;65309;49.790;18.972;2023-03-30T21:27:10;70918.97;;;-145.47;100.00
76478;BME280;65309;49.790;18.972;2023-03-30T21:32:16;96103.50;;;10.37;74.25
76478;BME280;65309;49.790;18.972;2023-03-30T21:37:18;96107.22;;;10.29;74.02
76478;BME280;65309;49.790;18.972;2023-03-30T21:42:20;96115.75;;;10.25;73.91
76478;BME280;65309;49.790;18.972;2023-03-30T21:47:23;96124.22;;;10.16;74.01
76478;BME280;65309;49.790;18.972;2023-03-30T21:52:25;96098.88;;;10.18;73.34
76478;BME280;65309;49.790;18.972;2023-03-30T21:57:27;96087.22;;;10.08;73.88
76478;BME280;65309;49.790;18.972;2023-03-30T22:02:32;96076.56;;;9.90;74.94
76478;BME280;65309;49.790;18.972;2023-03-30T22:07:35;96076.56;;;9.90;74.94
76478;BME280;65309;49.790;18.972;2023-03-30T22:12:45;96076.56;;;9.90;74.94
76478;BME280;65309;49.790;18.972;2023-03-30T22:17:48;96083.22;;;10.09;74.55
76478;BME280;65309;49.790;18.972;2023-03-30T22:22:50;96068.34;;;10.01;75.88
76478;BME280;65309;49.790;18.972;2023-03-30T22:27:52;96099.47;;;9.96;75.57
76478;BME280;65309;49.790;18.972;2023-03-30T22:32:59;96077.59;;;9.98;75.92
76478;BME280;65309;49.790;18.972;2023-03-30T22:38:02;96066.97;;;9.80;75.86
76478;BME280;65309;49.790;18.972;2023-03-30T22:43:04;96078.22;;;9.76;76.21
76478;BME280;65309;49.790;18.972;2023-03-30T22:48:07;96081.81;;;9.56;77.25
76478;BME280;65309;49.790;18.972;2023-03-30T22:53:10;96082.72;;;9.42;77.77
76478;BME280;65309;49.790;18.972;2023-03-30T22:58:12;96085.22;;;9.72;75.92
76478;BME280;65309;49.790;18.972;2023-03-30T23:03:16;96093.50;;;9.72;75.47
76478;BME280;65309;49.790;18.972;2023-03-30T23:08:18;96098.31;;;9.77;75.37
76478;BME280;65309;49.790;18.972;2023-03-30T23:13:21;96098.25;;;9.71;75.71
76478;BME280;65309;49.790;18.972;2023-03-30T23:18:24;96098.22;;;9.65;75.49
76478;BME280;65309;49.790;18.972;2023-03-30T23:23:26;96110.94;;;9.57;75.69
76478;BME280;65309;49.790;18.972;2023-03-30T23:28:28;96104.72;;;9.62;74.40
76478;BME280;65309;49.790;18.972;2023-03-30T23:33:32;96114.53;;;9.63;73.95
76478;BME280;65309;49.790;18.972;2023-03-30T23:38:34;96106.84;;;9.47;74.18
76478;BME280;65309;49.790;18.972;2023-03-30T23:43:37;96113.34;;;9.44;72.89
76478;BME280;65309;49.790;18.972;2023-03-30T23:48:40;96123.44;;;9.27;72.73
76478;BME280;65309;49.790;18.972;2023-03-30T23:53:42;96116.44;;;9.26;72.92
76478;BME280;65309;49.790;18.972;2023-03-30T23:58:45;96127.19;;;9.24;72.71
